Wetterdaten: aktuell Freitag, 27.05.2022 21:00
Datum Zeit Temp. A. Feuchte A. Luftdruck Regen Wind Richtung Richtung Sonnenschein ET UV Solar Taupunkt Windchill Windben
27.05.2022 21:00 15,0 C 51 % 1016,6 hPa 0,0 l/m 1,3 km/h (1 Bft) N-NW 329 0 min 0,026 mm 0,0 UV-I 7 W/m 4,9 C 15,0 C 8,0 km/h (2 Bft)
27.05.2022 20:00 16,4 C 46 % 1016,3 hPa 0,0 l/m 3,9 km/h (1 Bft) N 355 5 min 0,076 mm 0,0 UV-I 28 W/m 4,8 C 16,4 C 22,5 km/h (4 Bft)
27.05.2022 19:00 17,9 C 43 % 1016,0 hPa 0,0 l/m 4,1 km/h (1 Bft) W-NW 293 60 min 0,228 mm 0,5 UV-I 260 W/m 5,1 C 17,9 C 11,3 km/h (2 Bft)
27.05.2022 18:00 18,8 C 42 % 1015,7 hPa 0,0 l/m 5,2 km/h (1 Bft) SW 221 50 min 0,305 mm 1,1 UV-I 425 W/m 5,6 C 18,8 C 22,5 km/h (4 Bft)
27.05.2022 17:00 18,8 C 46 % 1015,5 hPa 0,0 l/m 6,3 km/h (2 Bft) W 270 30 min 0,305 mm 1,8 UV-I 162 W/m 6,9 C 18,8 C 12,9 km/h (3 Bft)
27.05.2022 16:00 19,9 C 49 % 1015,5 hPa 0,0 l/m 4,8 km/h (1 Bft) N 5 55 min 0,406 mm 3,1 UV-I 742 W/m 8,9 C 19,9 C 14,5 km/h (3 Bft)
27.05.2022 15:00 18,3 C 66 % 1015,8 hPa 0,0 l/m 5,1 km/h (1 Bft) N-NW 335 60 min 0,458 mm 4,3 UV-I 821 W/m 11,8 C 18,3 C 19,3 km/h (3 Bft)
27.05.2022 14:00 16,7 C 74 % 1016,4 hPa 0,2 l/m 5,3 km/h (1 Bft) NO 43 25 min 0,305 mm 4,3 UV-I 404 W/m 12,0 C 16,7 C 19,3 km/h (3 Bft)
27.05.2022 13:00 15,4 C 79 % 1016,8 hPa 0,0 l/m 4,8 km/h (1 Bft) N-NW 337 15 min 0,203 mm 4,2 UV-I 573 W/m 11,8 C 15,4 C 12,9 km/h (3 Bft)
27.05.2022 12:00 13,7 C 88 % 1017,2 hPa 0,0 l/m 1,6 km/h (1 Bft) N-NW 337 0 min 0,127 mm 2,1 UV-I 311 W/m 11,7 C 13,7 C 6,4 km/h (2 Bft)
27.05.2022 11:00 13,3 C 89 % 1017,2 hPa 0,4 l/m 3,2 km/h (1 Bft) SW 225 0 min 0,102 mm 1,6 UV-I 246 W/m 11,5 C 13,3 C 8,0 km/h (2 Bft)
27.05.2022 10:00 12,6 C 90 % 1017,2 hPa 2,2 l/m 0,0 km/h (0 Bft) NW 315 0 min 0,051 mm 1,0 UV-I 146 W/m 11,0 C 12,6 C 6,4 km/h (2 Bft)
27.05.2022 09:00 13,6 C 87 % 1017,3 hPa 1,0 l/m 4,8 km/h (1 Bft) N-NW 337 0 min 0,051 mm 0,0 UV-I 33 W/m 11,5 C 13,6 C 19,3 km/h (3 Bft)
27.05.2022 08:00 14,5 C 87 % 1016,6 hPa 0,8 l/m 1,6 km/h (1 Bft) N 360 0 min 0,051 mm 0,0 UV-I 84 W/m 12,4 C 14,5 C 11,3 km/h (2 Bft)
27.05.2022 07:00 15,5 C 80 % 1016,3 hPa 0,2 l/m 3,2 km/h (1 Bft) W 270 0 min 0,025 mm 0,0 UV-I 42 W/m 12,1 C 15,5 C 12,9 km/h (3 Bft)
27.05.2022 06:00 16,9 C 69 % 1015,8 hPa 0,0 l/m 3,2 km/h (1 Bft) SW 225 0 min 0,025 mm 0,0 UV-I 12 W/m 11,2 C 16,9 C 12,9 km/h (3 Bft)
27.05.2022 05:00 16,9 C 68 % 1016,1 hPa 0,0 l/m 1,6 km/h (1 Bft) N 360 0 min 0,025 mm 0,0 UV-I 0 W/m 11,0 C 16,9 C 9,7 km/h (2 Bft)
27.05.2022 04:00 17,2 C 66 % 1016,4 hPa 0,0 l/m 4,8 km/h (1 Bft) W 270 0 min 0,051 mm 0,0 UV-I 0 W/m 10,8 C 17,2 C 12,9 km/h (3 Bft)
27.05.2022 03:00 17,1 C 65 % 1016,8 hPa 0,0 l/m 1,6 km/h (1 Bft) W-SW 247 0 min 0,051 mm 0,0 UV-I 0 W/m 10,5 C 17,1 C 6,4 km/h (2 Bft)
27.05.2022 02:00 17,3 C 64 % 1017,2 hPa 0,0 l/m 3,2 km/h (1 Bft) W 270 0 min 0,051 mm 0,0 UV-I 0 W/m 10,4 C 17,3 C 11,3 km/h (2 Bft)
27.05.2022 01:00 16,4 C 66 % 1017,8 hPa 0,0 l/m 1,6 km/h (1 Bft) W-SW 247 0 min 0,025 mm 0,0 UV-I 0 W/m 10,0 C 16,4 C 6,4 km/h (2 Bft)
27.05.2022 00:00 15,9 C 68 % 1018,2 hPa 0,0 l/m 0,0 km/h (0 Bft) SW 225 0 min 0,025 mm 0,0 UV-I 0 W/m 10,0 C 15,9 C 4,8 km/h (1 Bft)
_ Min-Zeit 09:40 17:55 16:25 - 00:00 - - - - - - 19:30 09:40 09:50
Minimum _ 11,8 C 41 % 1015,2 hPa - 0,0 km/h (0 Bft) - - - - - - 4,4 C 11,8 C 3,2 km/h (1 Bft)
_ Max-Zeit 16:00 09:50 00:00 09:00 14:30 - - 12:50 15:00 13:10 13:50 08:45 16:00 17:25
Maximum _ 19,9 C 90 % 1018,2 hPa 0,6 l/m 8,7 km/h
N (2 Bft)
- - 5 min 0,458 mm 6,0 UV-I 974 W/m 12,5 C 19,9 C 29,0 km/h
W-SW (5 Bft)
Durchschnitt _ 16,3 C 68 % 1016,5 hPa #4,8 l/m 3,6 km/h (1 Bft) W-SW - #5:00 h #2,972 mm 2,2 UV-I 286 W/m 9,9 C 16,3 C 12,8 km/h (3 Bft)